Terminal Aerodrome Forecast
Issued by NWS Duluth, MN

Home | Current Version | Previous Version | Text Only | Print | Product List | Glossary On
Versions: 1 2 3 4 5 6 7 8 9 10 11 12 13 14 15 16 17 18 19 20 21
633
FTUS43 KDLH 062339
TAFINL
TAF
KINL 062339Z 0700/0724 34016G24KT 3/4SM HZ OVC045
     FM070300 32009KT 4SM HZ SKC
     FM070700 31005KT 4SM HZ SKC
     FM071400 31017G25KT 4SM HZ SKC=

USA.gov is the U.S. government's official web portal to all federal, state and local government web resources and services.